Time;durP1;ratioP1;P1;durP2;ratioP2;P2;SDS_P1;SDS_P2;PMS_P1;PMS_P2;Temp;Humidity;BMP_temperature;BMP_pressure;BME280_temperature;BME280_humidity;BME280_pressure;Samples;Min_cycle;Max_cycle;Signal;HPM_P1;HPM_P2
2022/05/05 00:01:43;;;;;;;11.88;7.70;;;;;;;10.75;100.00;102021.50;5075094;28;20417;-70
2022/05/05 00:04:09;;;;;;;16.15;8.45;;;;;;;10.79;100.00;102022.53;5071659;28;20124;-68
2022/05/05 00:06:35;;;;;;;18.75;8.38;;;;;;;10.85;100.00;102011.31;5074637;28;20032;-67
2022/05/05 00:09:01;;;;;;;14.82;8.77;;;;;;;10.99;100.00;102019.66;5074784;28;20476;-69
2022/05/05 00:14:31;;;;;;;13.57;8.20;;;;;;;11.16;100.00;102029.03;5072390;28;20399;-68
2022/05/05 00:17:06;;;;;;;15.00;7.30;;;;;;;11.22;99.27;102025.72;5075076;28;20027;-68
2022/05/05 00:19:34;;;;;;;15.25;8.50;;;;;;;11.21;98.33;102023.94;5067135;28;20083;-69
2022/05/05 00:21:59;;;;;;;13.23;8.32;;;;;;;11.20;99.01;102014.22;5073748;28;20428;-68
2022/05/05 00:24:25;;;;;;;15.80;8.57;;;;;;;11.17;97.55;102020.28;5073381;28;20051;-68
2022/05/05 00:26:51;;;;;;;15.32;8.68;;;;;;;11.13;97.68;102014.00;5074402;28;20068;-68
2022/05/05 00:29:18;;;;;;;15.20;7.80;;;;;;;11.06;97.54;102014.66;5074201;28;20428;-68
2022/05/05 00:31:44;;;;;;;15.60;8.05;;;;;;;10.98;97.84;102013.50;5074261;28;20027;-68
2022/05/05 00:34:09;;;;;;;13.13;7.85;;;;;;;10.99;98.65;102012.69;5073739;28;20028;-68
2022/05/05 00:36:35;;;;;;;14.40;8.05;;;;;;;10.90;98.73;102017.63;5074719;28;20548;-68
2022/05/05 00:39:00;;;;;;;19.05;8.52;;;;;;;10.87;99.12;102022.81;5073993;28;20430;-68
2022/05/05 00:41:26;;;;;;;17.52;7.88;;;;;;;10.83;99.93;102019.16;5074831;28;20024;-68
2022/05/05 00:43:52;;;;;;;17.65;8.45;;;;;;;10.83;100.00;102024.41;5074318;28;20023;-68
2022/05/05 00:46:17;;;;;;;16.85;7.53;;;;;;;10.73;100.00;102027.56;5074860;28;20044;-67
2022/05/05 00:48:43;;;;;;;15.73;9.20;;;;;;;10.62;100.00;102024.53;5074354;28;20032;-67
2022/05/05 00:51:09;;;;;;;15.93;8.18;;;;;;;10.56;100.00;102019.09;5074680;28;20032;-67
2022/05/05 00:53:34;;;;;;;13.90;7.53;;;;;;;10.59;100.00;102024.44;5073910;28;20054;-68
2022/05/05 00:56:06;;;;;;;22.52;8.50;;;;;;;10.58;100.00;102015.66;5074539;28;20082;-68
2022/05/05 00:58:31;;;;;;;20.83;9.15;;;;;;;10.61;100.00;102020.16;5073757;28;20032;-67
2022/05/05 01:01:03;;;;;;;19.85;9.57;;;;;;;10.61;100.00;102012.25;5074341;28;20035;-68
2022/05/05 01:03:32;;;;;;;15.90;9.13;;;;;;;10.60;100.00;102010.47;5073985;28;20070;-68
2022/05/05 01:05:57;;;;;;;17.90;8.73;;;;;;;10.61;100.00;102012.25;5074255;28;20032;-68
2022/05/05 01:08:23;;;;;;;15.65;8.02;;;;;;;10.70;100.00;102012.59;5074409;28;20468;-68
2022/05/05 01:10:48;;;;;;;19.42;8.75;;;;;;;10.74;100.00;102009.22;5073926;28;20032;-67
2022/05/05 01:13:13;;;;;;;16.38;8.10;;;;;;;10.80;99.83;102012.03;5074063;28;20020;-67
2022/05/05 01:15:39;;;;;;;14.50;7.95;;;;;;;10.85;99.88;102008.66;5073860;28;20391;-69
2022/05/05 01:18:05;;;;;;;14.80;8.25;;;;;;;10.87;99.73;102009.63;5073681;28;20104;-67
2022/05/05 01:20:30;;;;;;;12.82;7.93;;;;;;;10.89;98.28;102007.94;5074040;28;20052;-67
2022/05/05 01:22:55;;;;;;;15.40;8.13;;;;;;;10.86;97.73;102010.47;5073925;28;20040;-68
2022/05/05 01:28:13;;;;;;;16.10;8.27;;;;;;;10.76;99.00;102006.63;5073534;28;20082;-67
2022/05/05 01:30:41;;;;;;;11.43;7.50;;;;;;;10.83;99.78;102005.09;5067114;28;20044;-67
2022/05/05 01:33:20;;;;;;;14.93;8.05;;;;;;;10.85;99.72;102006.94;5073266;28;20024;-68
2022/05/05 01:35:50;;;;;;;17.92;8.32;;;;;;;10.88;99.59;101999.16;5073475;28;20035;-66
2022/05/05 01:38:18;;;;;;;16.58;7.95;;;;;;;10.94;98.34;101995.81;5073012;28;20024;-68
2022/05/05 01:40:49;;;;;;;15.85;8.30;;;;;;;10.95;98.28;102005.53;5073406;28;20537;-68
2022/05/05 01:43:16;;;;;;;14.30;7.65;;;;;;;10.95;97.29;102005.53;5074536;28;20074;-69
2022/05/05 01:45:42;;;;;;;14.15;8.07;;;;;;;10.93;97.79;102008.09;5071408;28;20093;-68
2022/05/05 01:48:08;;;;;;;13.05;7.75;;;;;;;10.96;97.73;102009.94;5071437;28;20237;-68
2022/05/05 01:50:33;;;;;;;14.63;8.65;;;;;;;10.97;97.97;102001.19;5071699;28;20384;-68
2022/05/05 01:53:00;;;;;;;15.95;8.13;;;;;;;10.97;98.45;102003.81;5072186;28;20040;-68
2022/05/05 01:55:26;;;;;;;14.95;7.55;;;;;;;10.96;96.66;102004.69;5072890;28;20024;-68
2022/05/05 01:57:52;;;;;;;17.85;8.40;;;;;;;10.97;97.85;102001.19;5073172;28;20026;-67
2022/05/05 02:00:18;;;;;;;16.20;7.68;;;;;;;10.97;96.98;102001.19;5072257;28;20466;-68
2022/05/05 02:02:44;;;;;;;14.45;7.78;;;;;;;10.92;98.36;102008.03;5070952;28;20040;-68
2022/05/05 02:05:10;;;;;;;14.93;7.63;;;;;;;10.83;97.53;102007.75;5073329;28;20384;-68
2022/05/05 02:07:37;;;;;;;14.88;7.13;;;;;;;10.82;97.85;102005.94;5070693;28;20047;-68
2022/05/05 02:10:04;;;;;;;13.63;7.43;;;;;;;10.82;99.14;102011.19;5071187;28;20028;-68
2022/05/05 02:12:30;;;;;;;18.98;8.40;;;;;;;10.87;100.00;102014.91;5072407;28;20078;-67
2022/05/05 02:14:55;;;;;;;17.67;8.07;;;;;;;10.83;99.38;102013.00;5071746;28;20048;-67
2022/05/05 02:17:21;;;;;;;14.32;7.65;;;;;;;10.72;98.88;102021.41;5071302;28;20431;-66
2022/05/05 02:19:47;;;;;;;15.02;7.40;;;;;;;10.61;99.86;102022.78;5072181;28;20055;-68
2022/05/05 02:22:14;;;;;;;14.82;8.32;;;;;;;10.53;100.00;102029.50;5071422;28;20040;-68
2022/05/05 02:24:39;;;;;;;17.00;8.48;;;;;;;10.47;100.00;102022.25;5069652;28;20041;-69
2022/05/05 02:27:05;;;;;;;13.10;8.45;;;;;;;10.45;100.00;102022.22;5070737;28;20032;-68
2022/05/05 02:29:30;;;;;;;16.75;8.75;;;;;;;10.34;100.00;102023.53;5072357;28;20090;-68
2022/05/05 02:31:55;;;;;;;17.27;8.77;;;;;;;10.36;100.00;102023.63;5070678;28;20021;-69
2022/05/05 02:34:21;;;;;;;15.75;7.93;;;;;;;10.34;100.00;102028.81;5070886;28;20082;-69
2022/05/05 02:39:30;;;;;;;13.23;8.30;;;;;;;10.08;100.00;102030.47;5071909;28;20055;-69
2022/05/05 02:41:55;;;;;;;13.27;9.20;;;;;;;10.03;100.00;102030.28;5071727;28;20016;-68
2022/05/05 02:44:21;;;;;;;17.52;8.63;;;;;;;10.01;100.00;102028.44;5071992;28;20023;-68
2022/05/05 02:46:46;;;;;;;15.82;8.80;;;;;;;9.94;100.00;102029.94;5087752;28;20029;-68
2022/05/05 02:49:13;;;;;;;21.15;9.90;;;;;;;9.89;100.00;102031.47;5070169;28;20403;-69
2022/05/05 02:51:38;;;;;;;17.67;9.48;;;;;;;9.84;100.00;102027.81;5071368;28;20112;-69
2022/05/05 02:56:48;;;;;;;;;;;;;;;9.77;100.00;102027.56;5072711;28;20105;-67
2022/05/05 02:59:13;;;;;;;16.13;9.15;;;;;;;9.75;100.00;102034.50;5071507;28;19937;-68
2022/05/05 03:01:39;;;;;;;18.65;9.40;;;;;;;9.70;100.00;102033.41;5070891;28;20360;-67
2022/05/05 03:04:04;;;;;;;17.77;9.90;;;;;;;9.68;100.00;102029.81;5070688;28;20116;-69
2022/05/05 03:06:29;;;;;;;21.83;10.13;;;;;;;9.76;100.00;102041.53;5070549;28;20375;-67
2022/05/05 03:08:55;;;;;;;17.80;9.32;;;;;;;9.83;100.00;102033.88;5067984;28;20086;-69
2022/05/05 03:11:20;;;;;;;14.93;8.93;;;;;;;9.68;100.00;102024.56;5065967;28;20035;-68
2022/05/05 03:13:45;;;;;;;19.75;8.60;;;;;;;9.54;100.00;102023.13;5072616;28;20137;-68
2022/05/05 03:16:11;;;;;;;18.25;9.18;;;;;;;9.47;100.00;102023.69;5072506;28;20044;-68
2022/05/05 03:18:40;;;;;;;18.17;9.20;;;;;;;9.43;100.00;102028.84;5069923;28;20020;-67
2022/05/05 03:21:06;;;;;;;18.95;9.88;;;;;;;9.47;100.00;102042.09;5068760;28;20442;-68
2022/05/05 03:23:31;;;;;;;17.25;9.55;;;;;;;9.52;100.00;102027.41;5069586;28;20029;-68
2022/05/05 03:25:56;;;;;;;14.55;9.77;;;;;;;9.68;100.00;102032.44;5070871;28;20024;-68
2022/05/05 03:28:22;;;;;;;17.35;9.45;;;;;;;9.54;100.00;102025.75;5070427;28;20037;-67
2022/05/05 03:30:47;;;;;;;17.38;9.95;;;;;;;9.45;100.00;102032.44;5071550;28;20024;-68
2022/05/05 03:33:12;;;;;;;17.65;9.43;;;;;;;9.39;100.00;102032.19;5071127;28;20021;-68
2022/05/05 03:35:38;;;;;;;13.32;8.73;;;;;;;9.37;100.00;102030.31;5072172;28;20027;-68
2022/05/05 03:38:03;;;;;;;23.48;9.20;;;;;;;9.29;100.00;102030.00;5069474;28;20032;-69
2022/05/05 03:40:29;;;;;;;17.42;9.45;;;;;;;9.38;100.00;102030.38;5071365;28;20032;-67
2022/05/05 03:42:54;;;;;;;22.05;10.52;;;;;;;9.34;100.00;102025.84;5070044;28;20027;-68
2022/05/05 03:45:19;;;;;;;19.05;10.70;;;;;;;9.31;100.00;102020.47;5072216;28;20025;-68
2022/05/05 03:47:45;;;;;;;16.52;9.73;;;;;;;9.33;100.00;102031.91;5071314;28;20103;-68
2022/05/05 03:50:10;;;;;;;14.70;8.85;;;;;;;9.36;100.00;102032.06;5074759;28;20189;-68
2022/05/05 03:52:36;;;;;;;16.90;8.85;;;;;;;9.34;100.00;102030.22;5071532;28;20024;-69
2022/05/05 03:55:01;;;;;;;21.23;10.05;;;;;;;9.42;100.00;102031.41;5074189;28;20052;-68
2022/05/05 03:57:26;;;;;;;18.10;10.30;;;;;;;9.39;100.00;102029.56;5074988;28;20020;-68
2022/05/05 03:59:52;;;;;;;20.13;9.50;;;;;;;9.37;100.00;102032.94;5074258;28;20047;-68
2022/05/05 04:02:17;;;;;;;20.58;9.45;;;;;;;9.33;100.00;102031.03;5073104;28;20482;-69
2022/05/05 04:04:42;;;;;;;18.20;9.57;;;;;;;9.39;100.00;102037.44;5073421;28;20032;-69
2022/05/05 04:07:08;;;;;;;15.95;8.77;;;;;;;9.39;100.00;102037.44;5074594;28;20072;-68
2022/05/05 04:09:33;;;;;;;21.75;9.90;;;;;;;9.39;100.00;102036.56;5075190;28;20031;-68
2022/05/05 04:11:58;;;;;;;20.85;10.68;;;;;;;9.44;100.00;102037.59;5075431;28;20416;-69
2022/05/05 04:14:24;;;;;;;15.32;9.40;;;;;;;9.42;100.00;102036.66;5075605;28;20056;-68
2022/05/05 04:16:49;;;;;;;16.55;9.90;;;;;;;9.45;100.00;102037.69;5075362;28;20050;-68
2022/05/05 04:19:15;;;;;;;17.00;9.75;;;;;;;9.51;100.00;102036.13;5075096;28;20033;-68
2022/05/05 04:21:40;;;;;;;18.80;9.55;;;;;;;9.63;100.00;102036.66;5075343;28;20023;-69
2022/05/05 04:24:06;;;;;;;18.05;9.82;;;;;;;9.73;100.00;102043.16;5074037;28;20032;-68
2022/05/05 04:26:31;;;;;;;16.92;9.95;;;;;;;9.74;100.00;102045.84;5073586;28;20032;-68
2022/05/05 04:28:57;;;;;;;14.95;9.27;;;;;;;9.83;100.00;102044.41;5074118;28;20032;-67
2022/05/05 04:31:26;;;;;;;17.55;9.80;;;;;;;9.89;100.00;102042.00;5073842;28;20056;-68
2022/05/05 04:33:51;;;;;;;18.50;9.20;;;;;;;9.98;100.00;102044.97;5073912;28;20043;-68
2022/05/05 04:36:16;;;;;;;16.20;9.55;;;;;;;10.06;100.00;102047.91;5072746;28;20024;-69
2022/05/05 04:38:42;;;;;;;14.82;9.18;;;;;;;10.10;100.00;102045.44;5073800;28;20040;-69
2022/05/05 04:41:07;;;;;;;18.45;9.35;;;;;;;10.20;100.00;102046.72;5072763;28;20050;-68
2022/05/05 04:43:33;;;;;;;16.83;10.48;;;;;;;10.30;100.00;102050.56;5074776;28;20031;-69
2022/05/05 04:45:59;;;;;;;18.05;10.32;;;;;;;10.30;100.00;102042.69;5072384;28;20049;-68
2022/05/05 04:48:24;;;;;;;18.10;10.52;;;;;;;10.34;100.00;102054.22;5073727;28;20032;-67
2022/05/05 04:50:49;;;;;;;19.63;10.35;;;;;;;10.34;100.00;102051.59;5073581;28;20031;-68
2022/05/05 04:53:15;;;;;;;17.65;10.52;;;;;;;10.34;100.00;102052.47;5072448;28;20056;-70
2022/05/05 04:55:40;;;;;;;16.98;10.48;;;;;;;10.33;100.00;102061.22;5071811;28;20115;-67
2022/05/05 04:58:05;;;;;;;21.38;11.45;;;;;;;10.34;100.00;102062.13;5073940;28;20044;-68
2022/05/05 05:00:31;;;;;;;17.65;10.45;;;;;;;10.32;100.00;102064.66;5070339;28;20111;-68
2022/05/05 05:02:57;;;;;;;20.10;9.43;;;;;;;10.37;100.00;102065.78;5073057;28;20048;-68
2022/05/05 05:05:22;;;;;;;16.80;10.25;;;;;;;10.40;100.00;102065.88;5073876;28;20127;-69
2022/05/05 05:07:48;;;;;;;18.50;10.60;;;;;;;10.44;100.00;102073.06;5071827;28;20106;-67
2022/05/05 05:10:13;;;;;;;21.75;10.25;;;;;;;10.46;100.00;102071.38;5074413;28;20491;-69
2022/05/05 05:12:39;;;;;;;17.65;9.68;;;;;;;10.45;100.00;102069.59;5073804;28;20109;-67
2022/05/05 05:15:06;;;;;;;15.30;10.65;;;;;;;10.44;100.00;102070.44;5073281;28;20056;-69
2022/05/05 05:17:31;;;;;;;17.15;10.20;;;;;;;10.48;100.00;102075.81;5074062;28;20464;-68
2022/05/05 05:19:57;;;;;;;20.10;11.38;;;;;;;10.51;100.00;102083.81;5074351;28;20059;-69
2022/05/05 05:22:22;;;;;;;16.55;10.48;;;;;;;10.49;100.00;102082.88;5069453;28;20575;-68
2022/05/05 05:24:47;;;;;;;19.20;10.73;;;;;;;10.51;100.00;102089.06;5066311;28;20529;-69
2022/05/05 05:27:13;;;;;;;17.98;10.88;;;;;;;10.49;100.00;102088.13;5074048;28;20411;-69
2022/05/05 05:29:38;;;;;;;22.35;10.75;;;;;;;10.54;100.00;102098.00;5061965;28;20040;-68
2022/05/05 05:32:04;;;;;;;18.20;10.18;;;;;;;10.56;100.00;102104.19;5070951;28;20020;-68
2022/05/05 05:34:29;;;;;;;20.92;11.80;;;;;;;10.67;100.00;102104.59;5073749;28;20078;-68
2022/05/05 05:36:55;;;;;;;20.55;11.48;;;;;;;10.71;100.00;102109.13;5073848;28;20075;-67
2022/05/05 05:39:21;;;;;;;22.23;10.82;;;;;;;10.80;100.00;102100.69;5073930;28;20059;-68
2022/05/05 05:41:46;;;;;;;21.85;10.80;;;;;;;10.83;100.00;102102.53;5072562;28;20028;-68
2022/05/05 05:44:11;;;;;;;20.20;11.70;;;;;;;10.84;100.00;102112.19;5073674;28;20119;-67
2022/05/05 05:46:37;;;;;;;17.60;11.13;;;;;;;10.86;100.00;102118.44;5073665;28;20062;-67
2022/05/05 05:49:04;;;;;;;21.27;11.77;;;;;;;10.92;100.00;102123.91;5072860;28;20078;-68
2022/05/05 05:51:29;;;;;;;18.98;11.23;;;;;;;10.92;100.00;102119.53;5069694;28;20021;-69
2022/05/05 05:53:54;;;;;;;19.15;11.10;;;;;;;10.97;100.00;102119.69;5073472;28;20047;-67
2022/05/05 05:56:20;;;;;;;17.65;11.18;;;;;;;11.06;100.00;102121.78;5071635;28;20116;-69
2022/05/05 05:58:45;;;;;;;22.70;11.52;;;;;;;11.07;100.00;102123.53;5073587;28;20140;-69
2022/05/05 06:01:10;;;;;;;21.83;12.10;;;;;;;11.11;100.00;102126.34;5071490;28;20384;-69
2022/05/05 06:03:54;;;;;;;21.80;13.20;;;;;;;11.14;100.00;102131.72;5069613;28;20028;-67
2022/05/05 06:06:23;;;;;;;23.20;11.65;;;;;;;11.19;100.00;102128.34;5072375;28;20104;-67
2022/05/05 06:08:49;;;;;;;21.88;11.95;;;;;;;11.24;100.00;102126.78;5068128;28;20028;-68
2022/05/05 06:11:17;;;;;;;25.42;11.40;;;;;;;11.28;100.00;102128.69;5070632;28;20576;-67
2022/05/05 06:13:43;;;;;;;24.10;11.07;;;;;;;11.33;100.00;102132.38;5073024;28;20024;-69
2022/05/05 06:16:10;;;;;;;30.77;11.55;;;;;;;11.37;100.00;102131.63;5071979;28;20448;-68
2022/05/05 06:18:39;;;;;;;22.90;12.00;;;;;;;11.39;100.00;102132.56;5073325;28;20028;-68
2022/05/05 06:21:05;;;;;;;19.10;11.65;;;;;;;11.42;100.00;102135.31;5071581;28;20153;-69
2022/05/05 06:23:30;;;;;;;18.65;11.48;;;;;;;11.46;100.00;102133.66;5069937;28;20051;-68
2022/05/05 06:25:56;;;;;;;20.98;12.23;;;;;;;11.48;100.00;102143.41;5068195;28;20044;-68
2022/05/05 06:28:21;;;;;;;26.40;12.40;;;;;;;11.48;100.00;102138.16;5072927;28;20499;-68
2022/05/05 06:30:46;;;;;;;22.48;12.45;;;;;;;11.54;100.00;102147.13;5073063;28;20361;-68
2022/05/05 06:33:12;;;;;;;24.02;12.40;;;;;;;11.59;100.00;102156.06;5072403;28;20392;-70
2022/05/05 06:35:37;;;;;;;25.35;13.13;;;;;;;11.63;100.00;102152.69;5073042;28;20024;-69
2022/05/05 06:38:03;;;;;;;28.77;13.30;;;;;;;11.68;100.00;102156.41;5072559;28;20031;-68
2022/05/05 06:40:28;;;;;;;30.48;13.32;;;;;;;11.69;100.00;102157.28;5069980;28;20032;-68
2022/05/05 06:42:53;;;;;;;25.52;13.90;;;;;;;11.74;100.00;102164.50;5071759;28;20503;-68
2022/05/05 06:45:19;;;;;;;23.08;13.65;;;;;;;11.78;100.00;102158.47;5067806;28;20070;-68
2022/05/05 06:47:44;;;;;;;27.27;14.15;;;;;;;11.86;100.00;102163.13;5071244;28;20781;-68
2022/05/05 06:50:10;;;;;;;32.20;14.70;;;;;;;11.92;100.00;102165.94;5070786;28;20438;-69
2022/05/05 06:52:35;;;;;;;29.83;13.57;;;;;;;11.96;100.00;102162.59;5071950;28;20437;-70
2022/05/05 06:55:00;;;;;;;24.23;13.57;;;;;;;12.01;100.00;102161.00;5065883;28;20035;-68
2022/05/05 06:57:26;;;;;;;26.42;14.30;;;;;;;12.07;100.00;102162.94;5066906;28;20095;-70
2022/05/05 06:59:52;;;;;;;28.08;14.27;;;;;;;12.10;100.00;102169.22;5072285;28;20025;-70
2022/05/05 07:02:17;;;;;;;28.08;14.63;;;;;;;12.13;100.00;102174.56;5071742;28;20063;-70
2022/05/05 07:07:27;;;;;;;32.30;16.40;;;;;;;12.21;100.00;102168.63;5070592;28;20032;-70
2022/05/05 07:12:36;;;;;;;34.25;15.55;;;;;;;12.30;100.00;102175.13;5070603;28;20137;-71
2022/05/05 07:15:02;;;;;;;28.17;15.68;;;;;;;12.36;100.00;102177.03;5068443;28;20025;-70
2022/05/05 07:17:27;;;;;;;32.47;15.23;;;;;;;12.41;100.00;102172.81;5068282;28;20111;-70
2022/05/05 07:19:53;;;;;;;33.95;16.58;;;;;;;12.47;100.00;102175.63;5065470;28;20053;-70
2022/05/05 07:22:19;;;;;;;33.75;17.98;;;;;;;12.52;100.00;102180.13;5072592;28;20032;-70
2022/05/05 07:24:44;;;;;;;33.67;17.50;;;;;;;12.55;100.00;102174.97;5074487;28;20103;-70
2022/05/05 07:27:13;;;;;;;35.03;18.25;;;;;;;12.63;100.00;102178.72;5075168;28;20028;-71
2022/05/05 07:29:39;;;;;;;33.90;17.67;;;;;;;12.72;100.00;102181.63;5075527;28;20032;-70
2022/05/05 07:32:04;;;;;;;36.03;19.15;;;;;;;12.75;100.00;102179.09;5076189;28;20047;-70
2022/05/05 07:34:30;;;;;;;30.40;17.65;;;;;;;12.86;100.00;102181.13;5075754;28;20418;-70
2022/05/05 07:36:56;;;;;;;33.90;17.83;;;;;;;12.89;100.00;102189.16;5074749;28;20407;-70
2022/05/05 07:39:22;;;;;;;35.03;17.88;;;;;;;12.96;100.00;102186.72;5076261;28;20085;-71
2022/05/05 07:41:48;;;;;;;39.53;18.35;;;;;;;13.01;100.00;102184.22;5075690;28;20224;-70
2022/05/05 07:44:15;;;;;;;40.50;21.13;;;;;;;13.08;100.00;102186.16;5076142;28;20099;-70
2022/05/05 07:46:41;;;;;;;51.83;21.90;;;;;;;13.16;100.00;102189.03;5074235;28;20031;-69
2022/05/05 07:49:06;;;;;;;38.78;21.48;;;;;;;13.18;100.00;102192.59;5075835;28;20478;-71
2022/05/05 07:51:33;;;;;;;34.63;19.92;;;;;;;13.21;100.00;102195.34;5076115;28;20056;-71
2022/05/05 07:56:45;;;;;;;42.20;21.83;;;;;;;13.28;100.00;102192.00;5075276;28;20441;-70
2022/05/05 07:59:11;;;;;;;43.20;22.83;;;;;;;13.29;100.00;102203.47;5071988;28;20028;-72
2022/05/05 08:01:37;;;;;;;45.72;25.35;;;;;;;13.38;100.00;102197.59;5075760;28;20453;-71
2022/05/05 08:04:03;;;;;;;46.13;26.35;;;;;;;13.43;100.00;102194.19;5069686;28;20025;-72
2022/05/05 08:06:28;;;;;;;55.80;31.05;;;;;;;13.49;100.00;102202.28;5071843;28;20078;-71
2022/05/05 08:08:53;;;;;;;55.67;30.63;;;;;;;13.54;99.76;102193.56;5072651;28;20023;-72
2022/05/05 08:11:19;;;;;;;56.67;31.33;;;;;;;13.70;99.39;102198.44;5074959;28;20024;-70
2022/05/05 08:13:45;;;;;;;57.40;31.95;;;;;;;13.66;99.53;102201.84;5074390;28;20471;-71
2022/05/05 08:16:10;;;;;;;54.20;32.08;;;;;;;13.72;98.74;102212.56;5074476;28;20081;-71
2022/05/05 08:18:38;;;;;;;59.30;31.85;;;;;;;13.79;99.09;102216.28;5073689;28;20123;-70
2022/05/05 08:21:06;;;;;;;57.22;31.50;;;;;;;13.84;98.71;102214.63;5073188;28;20091;-69
2022/05/05 08:23:33;;;;;;;60.88;31.95;;;;;;;13.88;98.07;102216.50;5071457;28;20044;-71
2022/05/05 08:28:42;;;;;;;64.70;32.08;;;;;;;13.95;98.09;102220.19;5075218;28;20059;-71
2022/05/05 08:31:10;;;;;;;58.25;32.25;;;;;;;13.92;98.44;102218.38;5075170;28;20029;-69
2022/05/05 08:33:36;;;;;;;56.55;31.45;;;;;;;14.09;98.22;102221.41;5073914;28;21348;-70
2022/05/05 08:36:02;;;;;;;60.67;32.45;;;;;;;14.25;97.54;102217.38;5055553;28;20060;-70
2022/05/05 08:38:27;;;;;;;55.20;31.73;;;;;;;14.26;96.80;102219.19;5072515;28;20067;-71
2022/05/05 08:40:54;;;;;;;60.38;33.08;;;;;;;14.39;96.40;102219.47;5074292;28;20104;-70
2022/05/05 08:43:19;;;;;;;54.83;31.33;;;;;;;14.53;96.46;102225.06;5074374;28;20035;-71
2022/05/05 08:45:48;;;;;;;55.97;31.63;;;;;;;14.63;95.78;102227.09;5073194;28;20016;-71
2022/05/05 08:48:14;;;;;;;57.63;31.75;;;;;;;14.63;94.56;102232.41;5088136;28;20027;-71
2022/05/05 08:50:41;;;;;;;62.55;32.70;;;;;;;14.65;94.21;102231.59;5073628;28;20021;-70
2022/05/05 08:53:07;;;;;;;59.22;30.20;;;;;;;14.72;93.99;102227.31;5070602;28;20035;-71
2022/05/05 08:55:33;;;;;;;50.38;30.45;;;;;;;14.70;93.55;102231.66;5071973;28;20468;-70
2022/05/05 08:58:00;;;;;;;52.08;31.60;;;;;;;14.78;93.37;102235.38;5074156;28;20038;-69
2022/05/05 09:00:29;;;;;;;54.80;31.73;;;;;;;14.81;94.32;102239.84;5075434;28;20476;-70
2022/05/05 09:02:56;;;;;;;58.95;31.02;;;;;;;14.88;94.14;102239.13;5072908;28;20029;-71
2022/05/05 09:05:43;;;;;;;52.95;29.60;;;;;;;15.06;93.93;102240.38;5073527;28;20033;-71
2022/05/05 09:08:24;;;;;;;55.63;30.63;;;;;;;15.04;93.18;102242.09;5072061;28;20025;-71
2022/05/05 09:10:51;;;;;;;55.70;32.42;;;;;;;15.01;95.06;102245.56;5072007;28;20035;-69
2022/05/05 09:13:25;;;;;;;53.80;30.95;;;;;;;15.07;93.33;102250.09;5073709;28;20384;-68
2022/05/05 09:15:52;;;;;;;54.13;30.40;;;;;;;15.13;93.75;102248.47;5073712;28;20037;-69
2022/05/05 09:18:20;;;;;;;50.85;30.60;;;;;;;15.18;93.27;102257.41;5070367;28;20115;-70
2022/05/05 09:20:48;;;;;;;56.53;32.78;;;;;;;15.09;92.75;102254.59;5073533;28;20044;-70
2022/05/05 09:23:33;;;;;;;51.60;30.05;;;;;;;15.14;92.65;102250.28;5072540;28;20032;-71
2022/05/05 09:26:08;;;;;;;45.53;28.73;;;;;;;15.21;91.55;102261.00;5070540;28;20032;-72
2022/05/05 09:28:38;;;;;;;51.47;29.95;;;;;;;15.32;91.38;102257.69;5071068;28;20046;-72
2022/05/05 09:31:08;;;;;;;49.97;27.77;;;;;;;15.37;91.43;102262.19;5065279;28;20025;-72
2022/05/05 09:33:33;;;;;;;46.92;29.15;;;;;;;15.53;91.29;102258.97;5073723;28;20028;-70
2022/05/05 09:36:02;;;;;;;53.58;29.20;;;;;;;15.50;91.23;102258.91;5071120;28;20036;-72
2022/05/05 09:38:50;;;;;;;52.40;29.00;;;;;;;15.37;90.18;102268.41;5071753;28;20071;-72
2022/05/05 09:41:16;;;;;;;46.90;27.90;;;;;;;15.45;90.49;102271.19;5071776;28;20036;-70
2022/05/05 09:43:48;;;;;;;51.35;30.48;;;;;;;15.34;92.43;102268.31;5087040;28;20507;-71
2022/05/05 09:46:23;;;;;;;46.80;28.20;;;;;;;15.54;90.58;102265.19;5072935;28;20063;-71
2022/05/05 09:48:53;;;;;;;45.78;26.48;;;;;;;15.68;89.83;102264.56;5073145;28;20036;-71
2022/05/05 09:51:19;;;;;;;42.15;26.10;;;;;;;15.85;89.31;102267.53;5073384;28;20025;-70
2022/05/05 09:59:36;;;;;;;27.75;19.83;;;;;;;16.01;83.70;102259.88;5073097;28;20082;-72
2022/05/05 10:02:12;;;;;;;47.83;23.55;;;;;;;16.00;83.84;102266.03;5072774;28;20020;-71
2022/05/05 10:04:40;;;;;;;33.55;22.30;;;;;;;16.15;83.71;102270.69;5072435;28;20028;-71
2022/05/05 10:07:07;;;;;;;35.30;20.17;;;;;;;16.17;84.58;102271.63;5071463;28;20158;-71
2022/05/05 10:09:33;;;;;;;39.85;24.38;;;;;;;16.17;85.21;102269.88;5072360;28;20032;-71
2022/05/05 10:11:59;;;;;;;41.10;26.13;;;;;;;16.31;85.62;102275.38;5072491;28;20733;-73
2022/05/05 10:14:25;;;;;;;32.80;21.10;;;;;;;16.30;82.13;102280.69;5072449;28;20020;-72
2022/05/05 10:16:51;;;;;;;34.88;19.50;;;;;;;16.40;81.51;102272.00;5079101;28;20027;-73
2022/05/05 10:19:16;;;;;;;36.97;23.35;;;;;;;16.53;83.38;102273.06;5071905;28;20099;-71
2022/05/05 10:21:45;;;;;;;32.53;19.70;;;;;;;16.48;80.74;102267.69;5070937;28;20152;-72
2022/05/05 10:24:16;;;;;;;26.13;16.77;;;;;;;16.58;79.69;102273.16;5072911;28;20060;-72
2022/05/05 10:26:44;;;;;;;37.60;21.38;;;;;;;16.61;81.36;102270.53;5064521;28;20026;-71
2022/05/05 10:29:31;;;;;;;45.50;23.75;;;;;;;16.47;81.86;102271.22;5071597;28;20024;-70
2022/05/05 10:32:07;;;;;;;36.08;23.98;;;;;;;16.53;82.02;102273.06;5071923;28;20468;-72
2022/05/05 10:34:33;;;;;;;43.25;25.80;;;;;;;16.58;82.09;102275.81;5072016;28;20016;-72
2022/05/05 10:37:01;;;;;;;39.42;26.00;;;;;;;16.44;82.76;102278.22;5070538;28;20582;-73
2022/05/05 10:39:42;;;;;;;39.13;25.90;;;;;;;16.63;83.49;102280.31;5071469;28;20468;-72
2022/05/05 10:42:14;;;;;;;39.00;25.10;;;;;;;16.77;82.59;102279.63;5072012;28;20035;-72
2022/05/05 10:45:15;;;;;;;38.65;24.80;;;;;;;16.93;80.86;102278.06;5069276;28;20505;-72
2022/05/05 10:47:49;;;;;;;38.65;24.70;;;;;;;16.77;83.31;102285.81;5070361;28;20039;-72
2022/05/05 10:50:43;;;;;;;33.88;22.73;;;;;;;16.96;84.64;102280.78;5072053;28;20036;-73
2022/05/05 10:53:23;;;;;;;37.50;23.37;;;;;;;17.13;83.42;102281.91;5071114;28;20051;-68
2022/05/05 10:55:49;;;;;;;43.25;24.33;;;;;;;17.20;80.49;102280.22;5065257;28;20036;-71
2022/05/05 10:58:52;;;;;;;37.85;25.65;;;;;;;17.26;81.31;102282.94;5067453;28;20480;-71
2022/05/05 11:01:17;;;;;;;41.10;25.42;;;;;;;17.28;82.56;102286.53;5071539;28;20025;-71
2022/05/05 11:04:05;;;;;;;40.10;28.92;;;;;;;17.20;81.94;102285.53;5069585;28;20019;-72
2022/05/05 11:06:32;;;;;;;40.40;27.23;;;;;;;17.35;83.89;102290.16;5070754;28;20024;-71
2022/05/05 11:08:58;;;;;;;38.95;25.80;;;;;;;17.48;81.81;102283.19;5070323;28;20020;-71
2022/05/05 11:11:42;;;;;;;42.08;27.52;;;;;;;17.55;81.37;102287.69;5070550;28;20023;-71
2022/05/05 11:23:05;;;;;;;38.60;25.52;;;;;;;17.51;80.23;102286.78;5071680;28;20106;-71
2022/05/05 11:25:33;;;;;;;38.15;27.35;;;;;;;17.66;80.56;102291.38;5069486;28;20031;-70
2022/05/05 11:27:58;;;;;;;39.30;25.65;;;;;;;17.62;80.89;102291.31;5068665;28;20388;-72
2022/05/05 11:30:24;;;;;;;39.05;26.25;;;;;;;17.74;80.34;102280.78;5070568;28;20028;-71
2022/05/05 11:32:49;;;;;;;35.50;24.70;;;;;;;17.87;79.56;102288.00;5070210;28;20108;-71
2022/05/05 11:35:23;;;;;;;31.90;21.80;;;;;;;17.94;78.83;102289.00;5070714;28;20070;-71
2022/05/05 11:37:50;;;;;;;29.20;21.27;;;;;;;18.19;79.14;102287.44;5069329;28;20029;-70
2022/05/05 11:40:15;;;;;;;28.63;20.17;;;;;;;18.32;77.49;102292.88;5070660;28;20036;-71
2022/05/05 11:45:29;;;;;;;30.38;21.00;;;;;;;18.38;76.63;102295.59;5067622;28;20094;-71
2022/05/05 11:47:54;;;;;;;31.83;21.77;;;;;;;18.30;76.53;102291.94;5070301;28;20029;-71
2022/05/05 11:50:20;;;;;;;29.60;20.90;;;;;;;18.18;78.85;102295.44;5071563;28;20020;-71